Time;durP1;ratioP1;P1;durP2;ratioP2;P2;SDS_P1;SDS_P2;PMS_P1;PMS_P2;Temp;Humidity;BMP_temperature;BMP_pressure;BME280_temperature;BME280_humidity;BME280_pressure;Samples;Min_cycle;Max_cycle;Signal;HPM_P1;HPM_P2
2023/10/10 00:02:18;;;;;;;7.00;2.20;;;14.90;99.90;;;;;;4968136;28;20275;-81
2023/10/10 00:04:49;;;;;;;7.90;2.60;;;14.90;99.90;;;;;;4982243;28;20102;-81
2023/10/10 00:07:16;;;;;;;7.95;2.88;;;14.90;99.90;;;;;;4965614;28;20039;-81
2023/10/10 00:09:45;;;;;;;6.60;2.42;;;14.90;99.90;;;;;;4968171;28;20054;-81
2023/10/10 00:12:19;;;;;;;9.15;2.90;;;14.90;99.90;;;;;;4951071;28;20098;-81
2023/10/10 00:14:50;;;;;;;7.13;2.70;;;14.90;99.90;;;;;;4983965;28;20110;-81
2023/10/10 00:17:17;;;;;;;6.72;2.25;;;14.90;99.90;;;;;;4933727;29;20049;-81
2023/10/10 00:19:51;;;;;;;7.30;2.70;;;14.90;99.90;;;;;;4993109;28;20039;-81
2023/10/10 00:22:20;;;;;;;7.03;2.55;;;14.90;99.90;;;;;;4983490;28;20098;-81
2023/10/10 00:24:48;;;;;;;6.55;2.58;;;14.90;99.90;;;;;;4984200;28;20043;-81
2023/10/10 00:27:14;;;;;;;5.90;2.25;;;14.90;99.90;;;;;;4949609;28;20209;-81
2023/10/10 00:29:42;;;;;;;7.53;2.70;;;14.80;99.90;;;;;;4978381;28;20180;-81
2023/10/10 00:32:39;;;;;;;7.40;2.53;;;14.80;99.90;;;;;;4993573;28;20398;-81
2023/10/10 00:35:06;;;;;;;6.40;2.50;;;14.80;99.90;;;;;;4961264;28;20051;-81
2023/10/10 00:37:34;;;;;;;7.57;2.70;;;14.80;99.90;;;;;;4966162;28;20051;-81
2023/10/10 00:40:08;;;;;;;7.75;2.90;;;14.80;99.90;;;;;;4967262;28;20050;-81
2023/10/10 00:42:38;;;;;;;7.18;2.50;;;14.80;99.90;;;;;;4998500;28;20043;-81
2023/10/10 00:45:14;;;;;;;7.45;2.30;;;14.80;99.90;;;;;;4951557;28;20039;-81
2023/10/10 00:47:48;;;;;;;7.68;2.72;;;14.80;99.90;;;;;;4982480;28;20043;-81
2023/10/10 00:50:19;;;;;;;7.55;2.85;;;14.80;99.90;;;;;;4933696;28;20515;-81
2023/10/10 00:52:56;;;;;;;9.10;2.90;;;14.80;99.90;;;;;;4966564;28;20521;-81
2023/10/10 00:55:24;;;;;;;7.60;2.47;;;14.80;99.90;;;;;;4981738;28;20047;-81
2023/10/10 00:57:58;;;;;;;7.10;2.55;;;14.80;99.90;;;;;;4950421;28;20048;-81
2023/10/10 01:00:31;;;;;;;6.45;2.70;;;14.80;99.90;;;;;;4949031;29;20047;-81
2023/10/10 01:03:19;;;;;;;7.10;2.75;;;14.80;99.90;;;;;;4961736;28;20192;-81
2023/10/10 01:05:52;;;;;;;6.07;2.47;;;14.80;99.90;;;;;;4947781;28;20090;-81
2023/10/10 01:08:19;;;;;;;6.35;2.33;;;14.80;99.90;;;;;;4949477;29;20425;-81
2023/10/10 01:10:49;;;;;;;6.95;2.70;;;14.80;99.90;;;;;;4980067;28;20050;-81
2023/10/10 01:13:16;;;;;;;6.80;2.67;;;14.80;99.90;;;;;;4947318;28;20649;-81
2023/10/10 01:15:44;;;;;;;8.20;3.10;;;14.70;99.90;;;;;;4982774;28;20074;-81
2023/10/10 01:18:13;;;;;;;6.90;2.75;;;14.80;99.90;;;;;;5003523;28;20485;-81
2023/10/10 01:20:45;;;;;;;7.55;2.60;;;14.80;99.90;;;;;;4933241;29;20036;-81
2023/10/10 01:23:15;;;;;;;7.32;2.75;;;14.70;99.90;;;;;;4977457;28;20042;-81
2023/10/10 01:25:43;;;;;;;9.18;2.72;;;14.70;99.90;;;;;;4981217;28;20569;-81
2023/10/10 01:28:15;;;;;;;6.95;2.65;;;14.70;99.90;;;;;;4962918;28;20039;-81
2023/10/10 01:30:57;;;;;;;7.70;2.55;;;14.80;99.90;;;;;;4964452;28;20043;-81
2023/10/10 01:35:59;;;;;;;6.78;2.90;;;14.70;99.90;;;;;;4964355;28;20078;-81
2023/10/10 01:38:41;;;;;;;7.03;3.00;;;14.80;99.90;;;;;;4981139;28;20102;-81
2023/10/10 01:41:22;;;;;;;6.75;2.63;;;14.80;99.90;;;;;;4988838;28;20035;-81
2023/10/10 01:43:53;;;;;;;7.03;2.95;;;14.80;99.90;;;;;;4948861;28;20126;-81
2023/10/10 01:46:28;;;;;;;7.53;2.95;;;14.80;99.90;;;;;;4995516;28;20043;-81
2023/10/10 01:48:57;;;;;;;7.95;3.45;;;14.80;99.90;;;;;;4966675;28;20057;-81
2023/10/10 01:51:33;;;;;;;7.03;2.97;;;14.80;99.90;;;;;;4981405;28;20039;-81
2023/10/10 01:53:59;;;;;;;7.80;3.10;;;14.80;99.90;;;;;;4949930;29;20098;-81
2023/10/10 01:56:28;;;;;;;7.47;3.15;;;14.80;99.90;;;;;;4978389;28;20094;-81
2023/10/10 01:58:54;;;;;;;8.05;3.10;;;14.80;99.90;;;;;;4962614;28;20035;-81
2023/10/10 02:01:23;;;;;;;9.48;3.40;;;14.80;99.90;;;;;;4980208;28;20098;-81
2023/10/10 02:03:50;;;;;;;8.55;3.65;;;14.80;99.90;;;;;;4970812;28;20046;-81
2023/10/10 02:06:24;;;;;;;9.32;3.55;;;14.80;99.90;;;;;;4965542;28;20036;-81
2023/10/10 02:09:40;;;;;;;8.65;3.80;;;14.80;99.90;;;;;;4977862;28;20386;-81
2023/10/10 02:11:50;;;;;;;8.82;3.40;;;14.80;99.90;;;;;;4939426;28;20058;-81
2023/10/10 02:14:18;;;;;;;8.93;3.65;;;14.80;99.90;;;;;;4969260;28;20082;-81
2023/10/10 02:16:49;;;;;;;8.35;3.28;;;14.90;99.90;;;;;;4963297;28;20043;-81
2023/10/10 02:19:15;;;;;;;7.78;3.20;;;14.90;99.90;;;;;;4965137;28;20397;-81
2023/10/10 02:21:48;;;;;;;7.93;3.35;;;14.90;99.90;;;;;;4980565;28;20415;-81
2023/10/10 02:26:54;;;;;;;7.75;3.47;;;14.90;99.90;;;;;;4980704;28;20050;-81
2023/10/10 02:35:09;;;;;;;8.43;4.03;;;14.90;99.90;;;;;;4952348;28;20091;-81
2023/10/10 02:40:15;;;;;;;8.18;3.92;;;14.90;99.90;;;;;;4963179;28;20074;-81
2023/10/10 02:42:50;;;;;;;9.85;4.35;;;14.90;99.90;;;;;;4970519;28;20039;-81
2023/10/10 02:45:17;;;;;;;9.93;4.30;;;15.00;99.90;;;;;;5002618;28;20085;-81
2023/10/10 02:47:52;;;;;;;8.95;4.00;;;14.90;99.90;;;;;;4988508;28;20382;-81
2023/10/10 02:50:40;;;;;;;9.57;4.63;;;15.00;99.90;;;;;;4986414;28;20063;-81
2023/10/10 02:53:07;;;;;;;10.00;4.30;;;15.00;99.90;;;;;;4985843;28;20248;-81
2023/10/10 02:55:41;;;;;;;9.02;4.13;;;15.00;99.90;;;;;;4970464;28;20433;-81
2023/10/10 02:58:22;;;;;;;8.82;4.18;;;15.00;99.90;;;;;;4938263;29;20511;-81
2023/10/10 03:00:52;;;;;;;9.07;3.90;;;15.00;99.90;;;;;;4967661;28;20116;-81
2023/10/10 03:03:20;;;;;;;8.13;3.83;;;15.00;99.90;;;;;;4953816;28;20433;-81
2023/10/10 03:05:54;;;;;;;8.75;4.13;;;15.10;99.90;;;;;;4987048;28;20036;-81
2023/10/10 03:11:00;;;;;;;9.07;3.85;;;15.10;99.90;;;;;;4985953;28;20109;-81
2023/10/10 03:13:28;;;;;;;8.38;3.45;;;15.10;99.90;;;;;;4969717;28;20416;-81
2023/10/10 03:16:19;;;;;;;7.80;3.50;;;15.10;99.90;;;;;;4988469;28;20078;-81
2023/10/10 03:19:13;;;;;;;9.40;3.25;;;15.10;99.90;;;;;;4963802;28;20032;-81
2023/10/10 03:29:21;;;;;;;7.90;3.10;;;15.20;99.90;;;;;;4987524;28;19918;-81
2023/10/10 03:32:19;;;;;;;10.15;3.58;;;15.20;99.90;;;;;;4985211;28;20046;-81
2023/10/10 03:34:45;;;;;;;8.00;3.60;;;15.20;99.90;;;;;;4965671;28;20513;-81
2023/10/10 03:39:55;;;;;;;8.90;3.47;;;15.20;99.90;;;;;;4988289;28;20446;-81
2023/10/10 05:23:49;;;;;;;9.18;3.63;;;15.10;99.90;;;;;;4982190;28;20062;-81
2023/10/10 05:26:19;;;;;;;8.63;3.63;;;15.10;99.90;;;;;;4995317;28;20490;-82
2023/10/10 05:28:48;;;;;;;8.55;3.88;;;15.10;99.90;;;;;;4975005;28;20098;-81
2023/10/10 05:31:19;;;;;;;9.07;4.30;;;15.10;99.90;;;;;;4990006;28;20039;-82
2023/10/10 05:33:47;;;;;;;7.90;3.75;;;15.10;99.90;;;;;;4947224;28;20110;-81
2023/10/10 05:36:13;;;;;;;9.00;4.57;;;15.10;99.90;;;;;;4965345;28;20043;-81
2023/10/10 05:38:39;;;;;;;10.63;5.28;;;15.00;99.90;;;;;;4950811;28;20494;-81
2023/10/10 05:41:12;;;;;;;8.85;4.50;;;15.10;99.90;;;;;;4967531;28;20039;-81
2023/10/10 05:43:39;;;;;;;10.45;4.75;;;15.10;99.90;;;;;;4979127;28;20036;-81
2023/10/10 05:46:05;;;;;;;10.80;4.97;;;15.00;99.90;;;;;;4982660;28;20050;-81
2023/10/10 05:48:35;;;;;;;10.70;5.45;;;15.00;99.90;;;;;;4962241;28;20106;-81
2023/10/10 05:51:03;;;;;;;9.48;4.60;;;15.00;99.90;;;;;;4962387;28;20131;-81
2023/10/10 05:53:33;;;;;;;10.70;5.10;;;15.50;99.90;;;;;;4963028;28;20497;-81
2023/10/10 05:56:12;;;;;;;10.50;5.15;;;14.90;99.90;;;;;;4962978;28;20067;-81
2023/10/10 05:58:39;;;;;;;13.07;5.13;;;15.00;99.90;;;;;;4977869;28;20039;-81
2023/10/10 06:01:08;;;;;;;12.88;6.68;;;14.90;99.90;;;;;;4946520;28;20414;-81
2023/10/10 06:03:34;;;;;;;12.55;6.35;;;15.00;99.90;;;;;;4956034;28;20518;-81
2023/10/10 06:06:03;;;;;;;12.38;7.05;;;15.00;99.90;;;;;;4974042;28;20097;-82
2023/10/10 06:08:31;;;;;;;11.05;6.75;;;15.00;99.90;;;;;;4973067;28;20050;-81
2023/10/10 06:10:57;;;;;;;11.20;6.70;;;15.00;99.90;;;;;;4940766;28;20036;-81
2023/10/10 06:13:24;;;;;;;12.95;7.50;;;15.10;99.90;;;;;;4971868;28;20105;-81
2023/10/10 06:15:52;;;;;;;12.55;6.75;;;15.10;99.90;;;;;;4943678;28;20457;-81
2023/10/10 06:18:18;;;;;;;12.90;7.22;;;15.10;99.90;;;;;;4996939;28;20171;-82
2023/10/10 06:20:45;;;;;;;13.70;7.32;;;15.10;99.90;;;;;;4978271;28;20250;-81
2023/10/10 06:23:15;;;;;;;13.13;7.90;;;15.10;99.90;;;;;;4993349;28;20163;-81
2023/10/10 06:25:42;;;;;;;15.15;7.80;;;15.10;99.90;;;;;;4957461;28;20047;-82
2023/10/10 06:28:22;;;;;;;13.43;7.80;;;15.10;99.90;;;;;;4974085;28;20520;-81
2023/10/10 06:30:55;;;;;;;13.68;8.57;;;15.10;99.90;;;;;;4992023;28;20380;-81
2023/10/10 06:33:28;;;;;;;12.07;7.63;;;15.10;99.90;;;;;;4975668;28;20054;-81
2023/10/10 06:36:18;;;;;;;17.77;8.15;;;15.10;99.90;;;;;;4974635;28;20390;-81
2023/10/10 06:38:44;;;;;;;12.20;7.10;;;16.20;99.90;;;;;;4991919;28;20044;-81
2023/10/10 06:41:17;;;;;;;13.57;7.53;;;15.10;99.90;;;;;;4978232;28;20046;-81
2023/10/10 06:43:46;;;;;;;14.20;8.30;;;15.10;99.90;;;;;;4960843;28;20054;-81
2023/10/10 06:46:17;;;;;;;14.02;7.53;;;15.10;99.90;;;;;;4976679;28;20040;-81
2023/10/10 06:48:47;;;;;;;15.75;8.65;;;15.20;99.90;;;;;;4971678;28;20417;-81
2023/10/10 06:51:15;;;;;;;13.98;8.27;;;15.20;99.90;;;;;;4976848;28;20417;-81
2023/10/10 06:53:45;;;;;;;14.82;8.15;;;15.30;99.90;;;;;;4944874;29;20467;-81
2023/10/10 06:56:17;;;;;;;14.18;8.30;;;15.30;99.90;;;;;;4975037;28;20043;-81
2023/10/10 06:58:47;;;;;;;14.52;8.00;;;15.30;99.90;;;;;;4969380;28;20057;-82
2023/10/10 07:01:19;;;;;;;12.88;7.63;;;15.40;99.90;;;;;;4988933;28;20035;-81
2023/10/10 07:03:54;;;;;;;13.35;7.32;;;15.40;99.90;;;;;;4976444;28;20071;-81
2023/10/10 07:06:23;;;;;;;12.98;7.38;;;15.40;99.90;;;;;;4959638;28;20425;-81
2023/10/10 07:11:34;;;;;;;12.93;6.97;;;15.50;99.90;;;;;;4955649;28;20673;-82
2023/10/10 07:13:59;;;;;;;12.82;7.60;;;15.50;99.90;;;;;;4961063;28;20070;-82
2023/10/10 07:16:25;;;;;;;13.70;8.27;;;15.50;99.90;;;;;;4943826;28;20035;-81
2023/10/10 07:18:56;;;;;;;13.52;7.63;;;15.50;99.90;;;;;;4945442;28;20043;-81
2023/10/10 07:21:36;;;;;;;12.18;7.20;;;15.50;99.90;;;;;;4976005;28;20106;-83
2023/10/10 07:24:13;;;;;;;12.35;7.53;;;15.60;99.90;;;;;;4977635;28;20331;-81
2023/10/10 07:26:42;;;;;;;12.65;7.40;;;15.60;99.90;;;;;;4960112;28;20069;-82
2023/10/10 07:29:57;;;;;;;11.60;7.25;;;15.70;99.90;;;;;;4946695;28;20123;-82
2023/10/10 07:32:16;;;;;;;12.57;7.32;;;15.80;99.90;;;;;;4945541;28;20046;-82
2023/10/10 07:34:51;;;;;;;13.23;7.72;;;15.80;99.90;;;;;;4964232;28;20444;-82
2023/10/10 07:37:18;;;;;;;13.63;7.60;;;15.90;99.90;;;;;;4979430;28;20573;-81
2023/10/10 07:40:09;;;;;;;12.75;7.20;;;16.00;99.90;;;;;;4963742;28;20082;-81
2023/10/10 07:42:37;;;;;;;13.50;8.02;;;16.00;99.90;;;;;;4981269;28;20049;-81
2023/10/10 07:45:13;;;;;;;12.80;7.55;;;16.10;99.90;;;;;;4964228;28;20531;-82
2023/10/10 07:50:35;;;;;;;12.93;8.05;;;16.10;99.90;;;;;;4992378;28;20710;-82
2023/10/10 07:53:04;;;;;;;12.93;7.57;;;16.20;99.90;;;;;;4979278;28;20079;-82
2023/10/10 07:55:34;;;;;;;12.95;8.32;;;16.20;99.90;;;;;;4946698;29;20106;-82
2023/10/10 07:58:00;;;;;;;15.68;8.40;;;16.20;99.90;;;;;;4996191;28;20122;-82
2023/10/10 08:00:35;;;;;;;13.65;8.45;;;16.30;99.90;;;;;;4983213;28;20510;-82
2023/10/10 08:03:02;;;;;;;15.32;9.93;;;16.30;99.90;;;;;;4945187;28;20111;-81
2023/10/10 08:05:29;;;;;;;18.10;10.45;;;16.40;99.90;;;;;;4977887;28;20039;-82
2023/10/10 08:07:55;;;;;;;18.15;11.32;;;16.40;99.90;;;;;;4946324;28;20501;-81
2023/10/10 08:13:09;;;;;;;18.55;11.38;;;16.40;99.90;;;;;;4992268;28;20051;-81
2023/10/10 08:15:48;;;;;;;21.85;12.38;;;16.40;99.90;;;;;;4978676;28;20053;-82
2023/10/10 08:18:39;;;;;;;18.05;11.55;;;16.40;99.90;;;;;;4963723;28;20058;-82
2023/10/10 08:23:25;;;;;;;19.33;12.43;;;16.50;99.90;;;;;;4995867;28;20134;-82
2023/10/10 08:25:52;;;;;;;18.55;11.90;;;16.50;99.90;;;;;;4962548;28;20031;-82
2023/10/10 08:28:21;;;;;;;20.17;12.43;;;16.50;99.90;;;;;;4961314;28;20051;-82
2023/10/10 08:30:48;;;;;;;18.73;12.50;;;16.50;99.90;;;;;;4963473;28;20043;-82
2023/10/10 08:33:14;;;;;;;19.80;12.27;;;16.60;99.90;;;;;;4978681;28;20048;-82
2023/10/10 08:35:42;;;;;;;21.35;12.68;;;16.60;99.90;;;;;;4949492;28;20062;-81
2023/10/10 08:38:13;;;;;;;19.95;12.80;;;16.60;99.90;;;;;;4961621;28;20521;-82
2023/10/10 08:40:40;;;;;;;18.08;12.00;;;16.70;99.90;;;;;;4944818;28;20046;-82
2023/10/10 08:43:09;;;;;;;18.33;11.48;;;16.80;99.90;;;;;;4930186;29;20804;-81
2023/10/10 08:45:39;;;;;;;18.85;11.68;;;16.80;99.90;;;;;;4995719;28;20118;-82
2023/10/10 08:48:12;;;;;;;18.80;11.55;;;16.90;99.90;;;;;;4945041;28;20619;-82
2023/10/10 08:50:40;;;;;;;19.00;11.73;;;16.90;99.90;;;;;;4961627;28;20051;-82
2023/10/10 08:53:11;;;;;;;20.80;11.20;;;17.00;99.90;;;;;;4946391;28;20684;-82
2023/10/10 08:55:38;;;;;;;16.83;10.85;;;17.00;99.90;;;;;;4962025;28;20039;-81
2023/10/10 08:58:07;;;;;;;17.85;11.20;;;17.10;99.90;;;;;;4961756;28;20044;-82
2023/10/10 09:00:33;;;;;;;18.38;12.05;;;17.10;99.90;;;;;;4980314;28;20039;-81
2023/10/10 09:02:59;;;;;;;18.92;12.70;;;17.10;99.90;;;;;;4962730;28;20133;-81
2023/10/10 09:05:28;;;;;;;18.25;11.27;;;17.20;99.90;;;;;;4930790;29;21290;-82
2023/10/10 09:07:54;;;;;;;20.15;12.45;;;17.30;99.90;;;;;;4931469;29;20142;-81
2023/10/10 09:10:37;;;;;;;22.27;13.57;;;17.30;99.90;;;;;;4977385;28;20044;-82
2023/10/10 09:13:04;;;;;;;21.33;13.85;;;17.50;99.90;;;;;;4977274;28;20520;-82
2023/10/10 09:15:30;;;;;;;22.17;13.35;;;17.50;99.90;;;;;;4959403;28;20042;-82
2023/10/10 09:18:15;;;;;;;19.50;13.98;;;17.60;99.90;;;;;;4995060;28;20499;-82
2023/10/10 09:20:41;;;;;;;19.88;13.00;;;17.80;99.90;;;;;;4947944;28;20038;-82
2023/10/10 09:23:21;;;;;;;22.52;13.77;;;17.90;99.90;;;;;;4995147;28;20041;-81
2023/10/10 09:25:49;;;;;;;21.10;13.82;;;17.90;99.90;;;;;;4976653;28;20055;-81
2023/10/10 09:28:16;;;;;;;20.23;13.40;;;17.80;99.90;;;;;;4944134;28;20118;-81
2023/10/10 09:33:33;;;;;;;21.23;14.15;;;17.80;99.90;;;;;;4977382;28;20047;-82
2023/10/10 09:36:15;;;;;;;21.45;14.63;;;17.80;99.90;;;;;;4991613;28;20082;-82
2023/10/10 09:38:46;;;;;;;21.60;14.10;;;17.90;99.90;;;;;;4979603;28;20058;-82
2023/10/10 09:44:30;;;;;;;23.08;14.30;;;17.90;99.90;;;;;;4978694;28;20043;-82
2023/10/10 09:57:42;;;;;;;22.40;14.77;;;18.30;99.90;;;;;;4978826;28;20148;-82
2023/10/10 10:00:15;;;;;;;24.85;14.88;;;18.30;99.90;;;;;;4946382;28;20054;-81
2023/10/10 10:02:49;;;;;;;;;;;18.30;99.90;;;;;;4980319;28;20079;-82
2023/10/10 10:05:19;;;;;;;20.85;14.45;;;18.30;99.90;;;;;;4991046;28;20402;-82
2023/10/10 10:08:21;;;;;;;21.77;13.95;;;18.30;99.90;;;;;;4974047;28;20133;-82
2023/10/10 10:10:56;;;;;;;21.75;14.02;;;18.30;99.90;;;;;;4960811;28;20097;-81
2023/10/10 10:13:49;;;;;;;23.40;14.68;;;18.30;99.90;;;;;;4978809;28;20072;-82
2023/10/10 10:16:37;;;;;;;22.17;15.27;;;18.40;99.90;;;;;;4994722;28;21931;-82
2023/10/10 10:19:17;;;;;;;23.00;14.93;;;18.50;99.90;;;;;;4976279;28;20102;-82
2023/10/10 10:22:07;;;;;;;22.17;15.15;;;18.50;99.90;;;;;;4994776;28;20041;-82
2023/10/10 10:25:07;;;;;;;22.25;14.35;;;18.50;99.90;;;;;;4962275;28;20066;-82
2023/10/10 10:27:39;;;;;;;21.85;13.98;;;18.60;99.90;;;;;;4992820;28;20095;-82
2023/10/10 10:32:54;;;;;;;22.25;14.18;;;18.70;99.90;;;;;;4944910;28;20382;-82
2023/10/10 10:35:36;;;;;;;24.70;14.35;;;18.70;99.90;;;;;;4944238;28;20035;-82
2023/10/10 10:38:06;;;;;;;22.33;14.32;;;18.70;99.90;;;;;;4959391;28;20099;-82
2023/10/10 10:43:14;;;;;;;22.13;13.68;;;18.90;99.90;;;;;;4972193;28;20042;-83
2023/10/10 10:45:44;;;;;;;21.75;12.75;;;18.90;99.90;;;;;;4944353;28;20036;-82
2023/10/10 10:48:29;;;;;;;23.17;14.25;;;19.00;99.90;;;;;;4958632;28;20121;-82
2023/10/10 10:51:23;;;;;;;20.90;13.63;;;19.10;99.90;;;;;;4975975;28;20051;-82
2023/10/10 10:54:07;;;;;;;19.63;12.80;;;19.20;99.90;;;;;;4974527;28;20055;-82
2023/10/10 10:59:12;;;;;;;21.15;12.95;;;19.40;99.90;;;;;;4991246;28;20505;-83
2023/10/10 11:01:54;;;;;;;20.52;12.23;;;19.50;99.90;;;;;;4943383;28;20050;-82
2023/10/10 11:07:07;;;;;;;24.25;12.25;;;19.60;99.90;;;;;;4981370;28;20035;-82
2023/10/10 11:09:52;;;;;;;23.80;12.77;;;19.70;99.90;;;;;;4947661;28;20079;-82
2023/10/10 11:12:21;;;;;;;19.55;12.10;;;19.80;99.90;;;;;;4949321;29;20404;-83
2023/10/10 11:14:49;;;;;;;18.80;11.30;;;20.00;99.90;;;;;;4979015;28;20035;-83
2023/10/10 11:17:18;;;;;;;18.42;11.45;;;20.10;99.90;;;;;;4981677;28;20242;-82
2023/10/10 11:19:46;;;;;;;17.55;10.18;;;20.10;99.90;;;;;;4997606;28;20404;-82
2023/10/10 11:22:38;;;;;;;18.02;10.05;;;20.10;99.90;;;;;;4947437;28;20043;-83
2023/10/10 11:25:21;;;;;;;16.48;10.20;;;20.10;99.90;;;;;;4949000;28;20058;-82
2023/10/10 11:27:48;;;;;;;17.58;9.73;;;20.10;99.90;;;;;;4995157;28;20047;-82
2023/10/10 11:30:24;;;;;;;17.83;10.23;;;20.10;99.90;;;;;;4946848;28;20039;-82
2023/10/10 11:33:00;;;;;;;15.38;9.45;;;20.10;99.90;;;;;;4994755;28;20043;-82
2023/10/10 11:35:26;;;;;;;16.02;9.38;;;20.00;99.90;;;;;;4964507;28;20066;-82
2023/10/10 11:38:15;;;;;;;16.35;10.45;;;20.00;99.90;;;;;;4964919;28;20501;-82
2023/10/10 11:40:43;;;;;;;16.67;10.30;;;20.00;99.90;;;;;;4946114;28;20035;-82
2023/10/10 11:43:11;;;;;;;19.92;10.82;;;20.10;99.90;;;;;;4948519;28;20051;-83
2023/10/10 11:45:50;;;;;;;18.75;10.95;;;20.20;99.90;;;;;;4947396;28;20039;-82
2023/10/10 11:48:16;;;;;;;17.80;10.65;;;20.30;99.90;;;;;;4996071;28;20039;-82
2023/10/10 11:50:46;;;;;;;18.10;11.02;;;20.30;99.90;;;;;;4995625;28;20051;-82
2023/10/10 11:53:24;;;;;;;19.27;11.23;;;20.30;99.90;;;;;;4975380;28;20394;-84
2023/10/10 11:55:54;;;;;;;17.77;10.52;;;20.40;99.90;;;;;;4945226;28;20066;-83
2023/10/10 11:58:21;;;;;;;18.02;11.02;;;21.10;99.90;;;;;;4961275;28;20102;-83
2023/10/10 12:01:10;;;;;;;18.45;10.90;;;20.50;99.90;;;;;;4981622;28;20039;-82
2023/10/10 12:06:19;;;;;;;17.42;10.40;;;20.40;99.90;;;;;;4979362;28;20122;-82
2023/10/10 12:08:47;;;;;;;17.23;10.60;;;20.30;99.90;;;;;;4979110;28;20078;-82
2023/10/10 12:11:19;;;;;;;18.23;10.75;;;20.30;99.90;;;;;;4978820;28;20465;-82
2023/10/10 12:13:50;;;;;;;19.17;11.25;;;20.20;99.90;;;;;;4963772;28;20059;-82
2023/10/10 12:16:17;;;;;;;18.58;10.98;;;20.20;99.90;;;;;;4944831;28;20053;-82
2023/10/10 12:18:44;;;;;;;19.15;11.10;;;20.20;99.90;;;;;;4979327;28;20048;-82
2023/10/10 12:21:19;;;;;;;16.58;10.10;;;20.30;99.90;;;;;;4994518;28;20098;-82
2023/10/10 12:23:49;;;;;;;17.42;9.70;;;20.50;99.90;;;;;;4961116;28;20047;-82
2023/10/10 12:26:15;;;;;;;18.52;10.90;;;20.70;99.90;;;;;;4976953;28;20061;-82
2023/10/10 12:28:43;;;;;;;19.15;11.18;;;20.70;99.90;;;;;;4932236;29;20039;-82
2023/10/10 12:31:15;;;;;;;15.90;10.02;;;20.70;99.90;;;;;;4949104;28;20421;-82
2023/10/10 12:33:41;;;;;;;15.25;9.45;;;20.70;99.90;;;;;;4963038;28;20039;-82
2023/10/10 12:36:09;;;;;;;17.48;10.98;;;20.60;99.90;;;;;;4958927;28;20281;-83
2023/10/10 12:38:35;;;;;;;18.45;9.73;;;20.50;99.90;;;;;;4992459;28;20095;-82
2023/10/10 12:41:01;;;;;;;19.35;10.68;;;20.50;99.90;;;;;;4949458;28;20535;-82
2023/10/10 12:43:26;;;;;;;17.48;10.98;;;20.60;99.90;;;;;;4946304;28;20047;-83
2023/10/10 12:45:54;;;;;;;16.80;10.25;;;20.60;99.90;;;;;;4977281;28;20035;-82
2023/10/10 12:48:20;;;;;;;16.77;10.43;;;20.70;99.90;;;;;;4977122;28;20517;-82
2023/10/10 12:50:48;;;;;;;15.20;9.48;;;20.80;99.90;;;;;;4962487;28;20079;-82
2023/10/10 12:53:20;;;;;;;17.55;9.57;;;20.90;99.90;;;;;;4977141;28;20477;-82
2023/10/10 12:55:51;;;;;;;;;;;21.00;99.90;;;;;;4979515;28;20050;-83
2023/10/10 12:58:22;;;;;;;15.95;9.38;;;21.00;99.90;;;;;;4975338;28;19927;-82
2023/10/10 13:00:52;;;;;;;16.23;9.80;;;21.00;99.90;;;;;;4995660;28;20027;-82
2023/10/10 13:03:18;;;;;;;16.00;9.20;;;20.90;99.90;;;;;;4961692;28;20114;-82
2023/10/10 13:05:47;;;;;;;14.88;8.90;;;20.80;99.90;;;;;;4960166;28;20568;-83
2023/10/10 13:08:17;;;;;;;18.38;9.43;;;20.80;99.90;;;;;;4941232;28;20051;-82
2023/10/10 13:10:44;;;;;;;13.85;8.32;;;20.70;99.90;;;;;;4961819;28;20061;-82
2023/10/10 13:13:15;;;;;;;17.10;9.93;;;20.70;99.90;;;;;;4963122;28;20046;-82
2023/10/10 13:15:47;;;;;;;17.70;8.77;;;20.70;99.90;;;;;;4983181;28;20142;-82
2023/10/10 13:18:19;;;;;;;;;;;20.70;99.90;;;;;;4981289;28;20074;-82
2023/10/10 13:20:50;;;;;;;16.20;9.20;;;20.60;99.90;;;;;;4975812;28;20436;-82
2023/10/10 13:23:19;;;;;;;16.50;9.38;;;20.60;99.90;;;;;;4978662;28;20524;-83
2023/10/10 13:25:48;;;;;;;17.08;9.10;;;20.60;99.90;;;;;;4978774;28;20042;-82
2023/10/10 13:28:17;;;;;;;17.95;8.98;;;20.70;99.90;;;;;;4962274;28;20078;-82
2023/10/10 13:30:47;;;;;;;14.50;8.05;;;20.80;99.90;;;;;;4979724;28;20127;-82
2023/10/10 13:33:16;;;;;;;14.38;8.65;;;20.90;99.90;;;;;;4992706;28;20042;-82
2023/10/10 13:35:45;;;;;;;16.63;8.93;;;20.90;99.90;;;;;;4962971;28;20035;-82
2023/10/10 13:38:11;;;;;;;16.20;8.23;;;20.70;99.90;;;;;;4957840;28;20401;-82
2023/10/10 13:40:48;;;;;;;14.20;7.93;;;20.60;99.90;;;;;;4962554;28;20506;-82
2023/10/10 13:43:18;;;;;;;15.93;8.50;;;20.50;99.90;;;;;;4945211;28;20066;-82
2023/10/10 13:45:45;;;;;;;13.95;7.90;;;20.40;99.90;;;;;;4945361;28;20047;-82
2023/10/10 13:48:14;;;;;;;14.57;8.10;;;20.30;99.90;;;;;;4978305;28;20408;-82
2023/10/10 13:50:41;;;;;;;13.82;7.60;;;20.20;99.90;;;;;;4994022;28;20065;-83
2023/10/10 13:53:09;;;;;;;13.82;7.55;;;20.10;99.90;;;;;;4958432;28;20097;-82
2023/10/10 13:55:38;;;;;;;13.32;7.53;;;20.00;99.90;;;;;;4979815;28;20134;-82
2023/10/10 13:58:09;;;;;;;15.73;7.97;;;20.00;99.90;;;;;;4958904;28;20434;-82
2023/10/10 14:00:45;;;;;;;13.73;7.75;;;19.90;99.90;;;;;;4961546;28;21067;-82
2023/10/10 14:03:14;;;;;;;14.75;8.05;;;19.90;99.90;;;;;;4975196;28;20508;-82
2023/10/10 14:06:00;;;;;;;15.27;7.97;;;19.90;99.90;;;;;;4975476;28;20465;-82
2023/10/10 14:08:26;;;;;;;16.45;8.77;;;19.90;99.90;;;;;;4960919;28;20445;-82
2023/10/10 14:10:54;;;;;;;14.05;8.07;;;20.00;99.90;;;;;;4962441;28;20043;-82
2023/10/10 14:13:20;;;;;;;17.70;8.93;;;20.00;99.90;;;;;;4992774;28;20043;-82
2023/10/10 14:15:56;;;;;;;16.42;8.98;;;20.00;99.90;;;;;;4997142;28;20074;-82
2023/10/10 14:18:28;;;;;;;15.05;8.35;;;19.90;99.90;;;;;;4996064;28;21029;-82
2023/10/10 14:20:54;;;;;;;15.30;8.63;;;19.90;99.90;;;;;;4980613;28;20504;-82
2023/10/10 14:23:22;;;;;;;14.98;8.10;;;19.90;99.90;;;;;;4962476;28;20057;-82
2023/10/10 14:25:49;;;;;;;13.88;7.45;;;19.80;99.90;;;;;;4941048;28;20035;-82
2023/10/10 14:28:19;;;;;;;15.70;8.07;;;19.80;99.90;;;;;;4976613;28;20042;-82
2023/10/10 14:30:51;;;;;;;13.38;7.53;;;19.80;99.90;;;;;;4976864;28;20689;-82
2023/10/10 14:33:17;;;;;;;14.63;7.35;;;19.70;99.90;;;;;;4974500;28;20408;-82
2023/10/10 14:35:44;;;;;;;14.05;8.02;;;19.70;99.90;;;;;;4992817;28;20070;-82
2023/10/10 14:38:15;;;;;;;14.57;7.22;;;19.70;99.90;;;;;;4962168;28;20148;-82
2023/10/10 14:40:42;;;;;;;14.52;7.70;;;19.70;99.90;;;;;;4977152;28;20126;-82
2023/10/10 14:43:10;;;;;;;15.80;7.40;;;19.70;99.90;;;;;;4959725;28;20172;-82
2023/10/10 14:45:36;;;;;;;13.50;7.07;;;19.60;99.90;;;;;;4989814;28;20049;-82
2023/10/10 14:48:06;;;;;;;12.55;7.25;;;19.60;99.90;;;;;;4960743;28;20050;-82
2023/10/10 14:50:39;;;;;;;14.82;8.73;;;19.60;99.90;;;;;;4994141;28;20051;-82
2023/10/10 14:53:08;;;;;;;15.02;7.90;;;19.60;99.90;;;;;;4991909;28;20046;-82
2023/10/10 14:55:44;;;;;;;14.63;8.50;;;19.60;99.90;;;;;;4963989;28;20039;-82
2023/10/10 14:58:12;;;;;;;15.32;8.18;;;19.50;99.90;;;;;;4975408;28;20134;-83
2023/10/10 15:00:41;;;;;;;15.70;8.73;;;19.50;99.90;;;;;;4960247;28;20101;-82
2023/10/10 15:03:15;;;;;;;14.43;8.43;;;18.70;99.90;;;;;;4945739;28;20031;-83
2023/10/10 15:05:50;;;;;;;15.85;8.68;;;19.50;99.90;;;;;;4959265;28;20047;-82
2023/10/10 15:08:21;;;;;;;14.23;7.93;;;19.50;99.90;;;;;;4956732;28;20275;-82
2023/10/10 15:10:51;;;;;;;14.35;8.18;;;19.50;99.90;;;;;;4977055;28;20047;-82
2023/10/10 15:13:17;;;;;;;14.95;8.10;;;19.50;99.90;;;;;;4958736;28;20071;-82
2023/10/10 15:15:48;;;;;;;15.05;7.82;;;19.60;99.90;;;;;;4960749;28;20035;-83
2023/10/10 15:18:17;;;;;;;14.35;8.60;;;19.60;99.90;;;;;;4944464;28;20497;-82
2023/10/10 16:15:38;;;;;;;15.05;8.30;;;17.50;99.90;;;;;;4820162;29;1358273;-91
2023/10/10 16:18:07;;;;;;;14.90;8.27;;;;;;;;;;4877646;29;20509;-90
2023/10/10 16:20:35;;;;;;;13.35;7.90;;;18.60;99.90;;;;;;4886569;29;20099;-90
2023/10/10 16:23:01;;;;;;;14.77;8.30;;;18.60;99.90;;;;;;4912712;29;20039;-90
2023/10/10 16:25:32;;;;;;;14.50;8.30;;;18.60;99.90;;;;;;4892741;29;20035;-91
2023/10/10 16:28:17;;;;;;;14.48;8.23;;;18.60;99.90;;;;;;4877951;29;20039;-92
2023/10/10 16:30:43;;;;;;;15.07;8.32;;;18.50;99.90;;;;;;4885333;29;20445;-92
2023/10/10 16:33:09;;;;;;;14.80;8.93;;;18.50;99.90;;;;;;4877765;29;20040;-90
2023/10/10 16:35:46;;;;;;;14.18;7.88;;;18.00;99.90;;;;;;4900311;29;20095;-91
2023/10/10 16:38:21;;;;;;;13.40;8.07;;;18.40;99.90;;;;;;4903234;29;20050;-92
2023/10/10 16:40:56;;;;;;;15.02;8.23;;;18.40;99.90;;;;;;4893926;29;20147;-91
2023/10/10 16:43:24;;;;;;;15.52;7.72;;;18.40;99.90;;;;;;4897206;29;20377;-92
2023/10/10 16:45:50;;;;;;;15.43;8.30;;;18.40;99.90;;;;;;4901465;29;20421;-90